Time;durP1;ratioP1;P1;durP2;ratioP2;P2;SDS_P1;SDS_P2;PMS_P1;PMS_P2;Temp;Humidity;BMP_temperature;BMP_pressure;BME280_temperature;BME280_humidity;BME280_pressure;Samples;Min_cycle;Max_cycle;Signal;HPM_P1;HPM_P2
2022/07/13 00:00:04;;;;;;;15.10;12.75;;;;;;;26.10;50.44;102003.78;5052725;28;20503;-67
2022/07/13 00:02:51;;;;;;;16.88;13.93;;;;;;;25.99;50.54;102010.53;5052263;28;20049;-67
2022/07/13 00:05:18;;;;;;;17.05;13.25;;;;;;;25.89;50.56;102008.00;5051085;28;20123;-67
2022/07/13 00:07:45;;;;;;;15.10;12.07;;;;;;;25.79;50.25;102014.78;5053387;28;20417;-67
2022/07/13 00:10:12;;;;;;;16.80;12.70;;;;;;;25.65;50.75;102013.63;5052642;28;20406;-67
2022/07/13 00:12:42;;;;;;;14.75;12.10;;;;;;;25.58;51.22;102016.22;5052175;28;20394;-66
2022/07/13 00:15:09;;;;;;;13.88;12.45;;;;;;;25.50;51.55;102018.16;5051079;28;20401;-66
2022/07/13 00:17:37;;;;;;;13.23;11.88;;;;;;;25.44;51.52;102013.38;5052243;28;20067;-67
2022/07/13 00:20:04;;;;;;;14.38;12.23;;;;;;;25.40;51.64;102014.75;5052424;28;20047;-67
2022/07/13 00:22:33;;;;;;;14.88;12.55;;;;;;;25.35;51.72;102015.31;5051811;28;20052;-67
2022/07/13 00:25:00;;;;;;;14.07;12.32;;;;;;;25.31;51.72;102017.53;5051988;28;20044;-67
2022/07/13 00:27:26;;;;;;;14.70;12.32;;;;;;;25.27;52.10;102010.69;5052401;28;20041;-67
2022/07/13 00:29:53;;;;;;;16.67;12.82;;;;;;;25.23;52.17;102001.03;5050927;28;20041;-67
2022/07/13 00:32:19;;;;;;;15.88;12.70;;;;;;;25.22;52.52;101992.97;5052183;28;20049;-67
2022/07/13 00:34:51;;;;;;;12.90;11.35;;;;;;;25.19;52.58;101990.56;5050759;28;20045;-67
2022/07/13 00:37:17;;;;;;;13.45;11.93;;;;;;;25.17;52.68;101982.50;5050842;28;20045;-67
2022/07/13 00:39:44;;;;;;;13.63;11.73;;;;;;;25.17;52.54;101965.16;5051724;28;20514;-66
2022/07/13 00:42:11;;;;;;;16.30;11.82;;;;;;;25.15;52.75;101959.84;5051626;28;20048;-67
2022/07/13 00:44:39;;;;;;;14.35;12.27;;;;;;;25.14;52.80;101955.38;5051859;28;20410;-67
2022/07/13 00:47:06;;;;;;;14.90;12.70;;;;;;;25.15;53.12;101961.72;5051510;28;20057;-67
2022/07/13 00:49:32;;;;;;;13.45;11.88;;;;;;;25.16;53.12;101958.81;5051830;28;20403;-67
2022/07/13 00:51:59;;;;;;;14.82;11.82;;;;;;;25.18;52.99;101953.13;5051557;28;20041;-66
2022/07/13 00:54:29;;;;;;;14.77;12.80;;;;;;;25.18;53.00;101950.38;5050443;28;20569;-67
2022/07/13 00:56:59;;;;;;;14.10;12.13;;;;;;;25.16;52.92;101947.81;5050601;28;20041;-67
2022/07/13 00:59:26;;;;;;;14.10;12.60;;;;;;;25.14;53.05;101944.38;5051632;28;20107;-67
2022/07/13 01:01:53;;;;;;;14.52;13.02;;;;;;;25.11;52.82;101944.72;5051472;28;20059;-67
2022/07/13 01:04:23;;;;;;;18.67;13.82;;;;;;;25.09;52.94;101949.56;5050505;28;20053;-67
2022/07/13 01:06:54;;;;;;;18.25;13.43;;;;;;;25.04;53.00;101943.72;5033973;28;20041;-68
2022/07/13 01:09:22;;;;;;;17.08;13.50;;;;;;;24.98;52.87;101939.78;5051370;28;20045;-67
2022/07/13 01:11:50;;;;;;;17.00;13.15;;;;;;;24.95;52.75;101934.63;5050864;28;20041;-67
2022/07/13 01:14:17;;;;;;;18.67;13.52;;;;;;;24.94;53.12;101930.16;5051536;28;20041;-68
2022/07/13 01:16:44;;;;;;;17.70;13.68;;;;;;;24.94;53.07;101932.06;5051910;28;20474;-67
2022/07/13 01:19:13;;;;;;;18.55;14.30;;;;;;;24.96;53.11;101932.72;5051477;28;20090;-68
2022/07/13 01:21:42;;;;;;;17.95;13.82;;;;;;;24.97;53.28;101926.19;5051102;28;20053;-68
2022/07/13 01:24:11;;;;;;;19.23;13.55;;;;;;;24.97;53.17;101931.69;5051642;28;20414;-67
2022/07/13 01:26:39;;;;;;;16.75;13.13;;;;;;;24.98;52.91;101919.69;5050174;28;20508;-67
2022/07/13 01:29:07;;;;;;;17.10;13.85;;;;;;;24.98;53.16;101914.19;5050277;28;20518;-67
2022/07/13 01:31:38;;;;;;;21.40;13.20;;;;;;;24.99;53.08;101916.78;5051289;28;20041;-67
2022/07/13 01:34:08;;;;;;;15.77;13.13;;;;;;;25.00;52.69;101912.13;5051620;28;20049;-67
2022/07/13 01:36:35;;;;;;;17.25;13.02;;;;;;;25.01;53.01;101913.84;5050176;28;20076;-67
2022/07/13 01:39:04;;;;;;;16.45;13.68;;;;;;;25.02;52.76;101921.06;5050079;28;20574;-67
2022/07/13 01:41:31;;;;;;;20.60;13.50;;;;;;;25.02;52.85;101918.31;5049748;28;20447;-67
2022/07/13 01:43:58;;;;;;;15.40;12.75;;;;;;;24.97;52.73;101916.09;5051380;28;20430;-67
2022/07/13 01:46:28;;;;;;;15.73;12.07;;;;;;;24.90;52.79;101914.19;5050087;28;20049;-66
2022/07/13 01:48:57;;;;;;;13.98;12.20;;;;;;;24.83;52.92;101913.19;5049988;28;20076;-66
2022/07/13 01:51:24;;;;;;;13.13;11.40;;;;;;;24.78;52.84;101912.88;5050071;28;20521;-66
2022/07/13 01:53:56;;;;;;;15.73;12.20;;;;;;;24.70;53.32;101911.00;5051319;28;20439;-66
2022/07/13 01:56:22;;;;;;;16.83;12.30;;;;;;;24.66;53.12;101912.38;5051265;28;20045;-67
2022/07/13 01:58:49;;;;;;;15.68;12.30;;;;;;;24.64;53.07;101911.69;5050008;28;20069;-66
2022/07/13 02:01:16;;;;;;;13.15;11.73;;;;;;;24.61;53.25;101910.16;5051187;28;20124;-66
2022/07/13 02:03:45;;;;;;;12.65;11.20;;;;;;;24.62;53.33;101902.78;5049847;28;20041;-66
2022/07/13 02:06:12;;;;;;;13.75;12.10;;;;;;;24.63;53.36;101897.09;5050762;28;20091;-67
2022/07/13 02:08:39;;;;;;;12.55;11.18;;;;;;;24.66;53.41;101894.00;5053517;28;20375;-66
2022/07/13 02:11:14;;;;;;;15.70;11.82;;;;;;;24.70;53.59;101894.50;5053629;28;20139;-66
2022/07/13 02:13:42;;;;;;;15.77;11.77;;;;;;;24.74;53.58;101893.13;5054692;28;20383;-66
2022/07/13 02:16:08;;;;;;;13.15;11.48;;;;;;;24.77;53.46;101897.41;5053231;28;20123;-66
2022/07/13 02:18:35;;;;;;;12.50;10.48;;;;;;;24.78;53.62;101891.75;5053661;28;20041;-66
2022/07/13 02:21:02;;;;;;;20.55;11.80;;;;;;;24.81;53.46;101896.88;5053521;28;20049;-66
2022/07/13 02:23:31;;;;;;;14.55;11.68;;;;;;;24.84;53.86;101898.41;5053543;28;20414;-66
2022/07/13 02:25:57;;;;;;;13.65;10.93;;;;;;;24.85;53.64;101897.38;5053110;28;20192;-66
2022/07/13 02:28:24;;;;;;;13.50;10.77;;;;;;;24.86;53.67;101896.34;5053425;28;20040;-66
2022/07/13 02:30:50;;;;;;;19.05;11.68;;;;;;;24.85;53.76;101886.41;5054671;28;20039;-66
2022/07/13 02:33:22;;;;;;;11.27;10.07;;;;;;;24.83;53.68;101886.56;5053507;28;20268;-66
2022/07/13 02:35:49;;;;;;;13.65;10.93;;;;;;;24.83;53.54;101880.22;5053129;28;20136;-66
2022/07/13 02:38:16;;;;;;;12.63;10.60;;;;;;;24.82;53.32;101884.00;5054518;28;20048;-66
2022/07/13 02:40:42;;;;;;;12.63;9.70;;;;;;;24.81;53.42;101890.53;5053471;28;20044;-66
2022/07/13 02:43:12;;;;;;;13.40;10.10;;;;;;;24.78;53.25;101889.00;5054442;28;20475;-66
2022/07/13 02:45:42;;;;;;;12.93;11.18;;;;;;;24.77;53.59;101881.78;5053221;28;20441;-66
2022/07/13 02:48:08;;;;;;;14.38;10.68;;;;;;;24.76;53.58;101869.09;5053137;28;20057;-66
2022/07/13 02:50:35;;;;;;;15.23;10.93;;;;;;;24.78;53.64;101879.91;5052996;28;20059;-67
2022/07/13 02:53:05;;;;;;;14.75;10.55;;;;;;;24.78;53.62;101874.41;5053317;28;20072;-66
2022/07/13 02:55:34;;;;;;;12.98;10.18;;;;;;;24.78;53.63;101871.66;5053024;28;20459;-66
2022/07/13 02:58:01;;;;;;;13.93;10.27;;;;;;;24.77;53.45;101857.06;5053162;28;20136;-66
2022/07/13 03:00:29;;;;;;;11.15;9.60;;;;;;;24.77;53.34;101853.47;5053140;28;20044;-66
2022/07/13 03:02:57;;;;;;;15.25;10.77;;;;;;;24.75;53.70;101863.75;5052895;28;20056;-66
2022/07/13 03:05:24;;;;;;;11.82;9.57;;;;;;;24.73;53.53;101858.44;5054697;28;20056;-66
2022/07/13 03:07:51;;;;;;;13.95;10.00;;;;;;;24.72;53.42;101854.00;5053326;28;20087;-66
2022/07/13 03:10:18;;;;;;;10.48;9.45;;;;;;;24.70;53.34;101858.81;5052975;28;20560;-66
2022/07/13 03:12:47;;;;;;;11.00;9.68;;;;;;;24.68;53.57;101852.63;5052593;28;20040;-66
2022/07/13 03:15:14;;;;;;;11.60;9.05;;;;;;;24.65;53.70;101859.34;5052604;28;20068;-66
2022/07/13 03:17:41;;;;;;;13.48;9.75;;;;;;;24.65;53.53;101863.97;5053582;28;20041;-66
2022/07/13 03:20:10;;;;;;;12.90;10.00;;;;;;;24.65;53.27;101867.56;5052294;28;20041;-66
2022/07/13 03:22:42;;;;;;;12.07;10.07;;;;;;;24.66;53.11;101868.44;5053935;28;20568;-66
2022/07/13 03:25:09;;;;;;;11.07;9.02;;;;;;;24.67;53.32;101861.91;5052398;28;20132;-66
2022/07/13 03:27:36;;;;;;;11.88;9.55;;;;;;;24.69;53.28;101851.59;5053944;28;20514;-66
2022/07/13 03:30:03;;;;;;;12.25;9.20;;;;;;;24.69;53.50;101851.59;5052712;28;20037;-66
2022/07/13 03:32:36;;;;;;;11.68;9.15;;;;;;;24.68;53.10;101852.63;5053750;28;20071;-66
2022/07/13 03:35:04;;;;;;;9.88;8.90;;;;;;;24.65;53.13;101839.25;5052723;28;20041;-66
2022/07/13 03:37:31;;;;;;;9.57;8.40;;;;;;;24.62;53.31;101834.09;5052623;28;20041;-66
2022/07/13 03:39:58;;;;;;;12.73;8.93;;;;;;;24.60;53.21;101830.69;5052404;28;20107;-66
2022/07/13 03:42:25;;;;;;;13.85;9.15;;;;;;;24.58;53.02;101822.63;5052210;28;20045;-66
2022/07/13 03:45:12;;;;;;;16.52;10.68;;;;;;;24.58;53.10;101825.38;5053578;28;20057;-66
2022/07/13 03:47:39;;;;;;;13.77;9.95;;;;;;;24.55;52.87;101835.84;5053975;28;20060;-67
2022/07/13 03:50:07;;;;;;;11.65;10.18;;;;;;;24.50;52.82;101836.34;5052354;28;20041;-67
2022/07/13 03:52:42;;;;;;;14.57;9.25;;;;;;;24.45;53.05;101833.28;5052328;28;20050;-67
2022/07/13 03:55:09;;;;;;;10.95;9.30;;;;;;;24.43;53.00;101829.84;5035328;28;20403;-66
2022/07/13 03:57:37;;;;;;;11.20;9.93;;;;;;;24.40;52.79;101824.72;5052348;28;20087;-66
2022/07/13 04:00:05;;;;;;;10.80;9.30;;;;;;;24.37;53.21;101825.06;5052244;28;20376;-67
2022/07/13 04:02:43;;;;;;;12.30;8.77;;;;;;;24.35;52.96;101824.38;5053380;28;20053;-67
2022/07/13 04:05:13;;;;;;;13.07;9.40;;;;;;;24.34;52.73;101829.00;5052304;28;20111;-67
2022/07/13 04:07:42;;;;;;;12.80;9.95;;;;;;;24.34;53.12;101825.41;5051948;28;20051;-67
2022/07/13 04:10:09;;;;;;;11.45;9.15;;;;;;;24.36;53.16;101826.94;5051339;28;20403;-67
2022/07/13 04:12:49;;;;;;;10.85;9.25;;;;;;;24.36;52.98;101824.19;5050691;28;20044;-67
2022/07/13 04:15:18;;;;;;;11.05;9.38;;;;;;;24.38;52.96;101824.88;5050150;28;20210;-67
2022/07/13 04:17:44;;;;;;;11.52;9.60;;;;;;;24.38;52.94;101822.13;5051000;28;20049;-67
2022/07/13 04:20:11;;;;;;;11.43;8.80;;;;;;;24.39;53.22;101815.63;5050887;28;20095;-66
2022/07/13 04:22:46;;;;;;;12.70;8.68;;;;;;;24.43;53.13;101815.25;5034841;28;20045;-66
2022/07/13 04:25:13;;;;;;;10.10;8.90;;;;;;;24.45;53.03;101816.78;5049898;28;20094;-66
2022/07/13 04:27:40;;;;;;;14.38;8.73;;;;;;;24.49;53.20;101809.91;5050827;28;20143;-67
2022/07/13 04:30:07;;;;;;;8.93;8.00;;;;;;;24.51;52.94;101813.34;5050436;28;20115;-66
2022/07/13 04:32:38;;;;;;;9.98;8.05;;;;;;;24.54;52.99;101809.41;5049944;28;20040;-66
2022/07/13 04:35:05;;;;;;;10.40;8.30;;;;;;;24.54;52.75;101810.28;5050615;28;20037;-66
2022/07/13 04:37:36;;;;;;;9.45;7.60;;;;;;;24.57;53.05;101803.56;5050796;28;20510;-66
2022/07/13 04:40:03;;;;;;;9.30;7.70;;;;;;;24.58;53.15;101808.88;5050260;28;20439;-66
2022/07/13 04:42:58;;;;;;;11.90;7.45;;;;;;;24.58;52.91;101816.28;5049905;28;20037;-67
2022/07/13 04:45:25;;;;;;;12.18;7.70;;;;;;;24.62;52.96;101803.91;5050158;28;20048;-66
2022/07/13 04:47:53;;;;;;;9.05;7.47;;;;;;;24.63;52.83;101803.72;5050460;28;20045;-66
2022/07/13 04:50:22;;;;;;;10.50;7.45;;;;;;;24.66;53.00;101794.25;5050227;28;20064;-66
2022/07/13 04:52:50;;;;;;;9.65;6.93;;;;;;;24.69;52.83;101793.91;5050220;28;20399;-67
2022/07/13 04:55:18;;;;;;;9.55;6.63;;;;;;;24.72;53.07;101793.56;5050036;28;20560;-66
2022/07/13 04:57:46;;;;;;;8.00;6.38;;;;;;;24.75;52.85;101801.44;5050387;28;20144;-66
2022/07/13 05:00:14;;;;;;;6.38;5.75;;;;;;;24.77;52.56;101796.63;5050398;28;20076;-66
2022/07/13 05:02:44;;;;;;;7.78;5.80;;;;;;;24.79;52.83;101797.28;5051890;28;20478;-66
2022/07/13 05:05:11;;;;;;;6.90;5.20;;;;;;;24.82;52.60;101801.56;5046890;28;20046;-66
2022/07/13 05:07:37;;;;;;;7.95;5.28;;;;;;;24.85;52.92;101795.72;5031631;28;20037;-66
2022/07/13 05:10:08;;;;;;;10.18;5.60;;;;;;;24.90;52.89;101790.53;5040160;28;20442;-67
2022/07/13 05:12:40;;;;;;;7.95;5.47;;;;;;;24.92;52.71;101792.06;5050313;28;20053;-67
2022/07/13 05:15:09;;;;;;;9.32;5.50;;;;;;;24.95;52.81;101788.97;5050219;28;20073;-66
2022/07/13 05:17:37;;;;;;;9.35;5.68;;;;;;;24.98;52.44;101793.28;5050085;28;20055;-66
2022/07/13 05:20:04;;;;;;;6.65;5.40;;;;;;;25.01;52.50;101791.03;5049721;28;21379;-66
2022/07/13 05:22:39;;;;;;;5.97;5.18;;;;;;;25.05;52.21;101794.25;5050126;28;20052;-67
2022/07/13 05:25:07;;;;;;;7.85;5.30;;;;;;;25.09;52.24;101792.00;5050239;28;20135;-67
2022/07/13 05:27:33;;;;;;;7.05;5.18;;;;;;;25.12;52.71;101789.75;5050231;28;20041;-66
2022/07/13 05:30:00;;;;;;;6.88;4.88;;;;;;;25.16;52.13;101787.50;5051810;28;20048;-66
2022/07/13 05:32:26;;;;;;;6.68;4.60;;;;;;;25.19;52.37;101788.00;5048505;28;20041;-66
2022/07/13 05:35:02;;;;;;;6.72;4.15;;;;;;;25.26;52.12;101793.63;5051441;28;20048;-66
2022/07/13 05:37:30;;;;;;;5.80;4.30;;;;;;;25.30;51.91;101793.09;5050038;28;20055;-67
2022/07/13 05:39:57;;;;;;;6.53;4.25;;;;;;;25.34;52.03;101788.94;5049635;28;20517;-66
2022/07/13 05:42:23;;;;;;;5.63;3.65;;;;;;;25.39;51.61;101785.66;5051477;28;20072;-67
2022/07/13 05:44:54;;;;;;;6.13;4.80;;;;;;;25.43;51.69;101792.50;5054198;28;20045;-67
2022/07/13 05:47:21;;;;;;;8.20;4.22;;;;;;;25.49;51.70;101796.41;5053435;28;20049;-67
2022/07/13 05:49:48;;;;;;;6.57;3.85;;;;;;;25.54;51.79;101802.22;5047322;28;20407;-66
2022/07/13 05:52:20;;;;;;;5.88;4.35;;;;;;;25.60;51.52;101805.06;5054088;28;20068;-66
2022/07/13 05:54:54;;;;;;;4.88;4.30;;;;;;;25.65;51.43;101812.78;5037895;28;20442;-67
2022/07/13 05:57:23;;;;;;;5.68;4.78;;;;;;;25.70;51.32;101817.75;5055295;28;20052;-69
2022/07/13 05:59:49;;;;;;;5.38;4.40;;;;;;;25.74;51.32;101816.34;5055052;28;20041;-69
2022/07/13 06:02:16;;;;;;;7.95;4.70;;;;;;;25.78;51.10;101821.28;5055360;28;20072;-69
2022/07/13 06:04:44;;;;;;;7.28;4.32;;;;;;;25.82;50.96;101817.13;5054972;28;20386;-69
2022/07/13 06:07:10;;;;;;;7.13;4.13;;;;;;;25.87;50.76;101809.19;5055862;28;20037;-69
2022/07/13 06:09:37;;;;;;;6.65;4.60;;;;;;;25.89;50.84;101804.34;5055612;28;20045;-68
2022/07/13 06:12:03;;;;;;;5.80;3.90;;;;;;;25.90;50.52;101813.44;5055629;28;20044;-69
2022/07/13 06:14:30;;;;;;;6.72;4.18;;;;;;;25.94;50.57;101826.66;5053289;28;20430;-69
2022/07/13 06:16:57;;;;;;;8.55;4.75;;;;;;;25.97;50.61;101820.78;5054783;28;20043;-69
2022/07/13 06:19:23;;;;;;;6.93;4.30;;;;;;;26.03;50.46;101819.22;5054800;28;20040;-69
2022/07/13 06:21:50;;;;;;;9.57;4.40;;;;;;;26.08;50.44;101826.91;5052877;28;20376;-69
2022/07/13 06:24:17;;;;;;;9.65;5.20;;;;;;;26.14;50.55;101820.66;5056132;28;20052;-69
2022/07/13 06:26:45;;;;;;;5.88;5.00;;;;;;;26.21;50.37;101818.84;5055603;28;20057;-69
2022/07/13 06:29:11;;;;;;;5.13;4.63;;;;;;;26.25;50.02;101815.53;5055829;28;20483;-69
2022/07/13 06:31:38;;;;;;;6.30;5.05;;;;;;;26.31;50.25;101813.94;5055840;28;20132;-69
2022/07/13 06:34:09;;;;;;;8.07;5.30;;;;;;;26.38;49.77;101816.81;5056021;28;20446;-68
2022/07/13 06:36:38;;;;;;;7.03;5.07;;;;;;;26.43;49.78;101806.94;5056770;28;20045;-69
2022/07/13 06:39:05;;;;;;;13.55;5.30;;;;;;;26.50;49.48;101807.88;5056694;28;20499;-69
2022/07/13 06:41:31;;;;;;;5.45;4.45;;;;;;;26.56;49.31;101811.78;5059247;28;20450;-67
2022/07/13 06:43:58;;;;;;;8.60;5.05;;;;;;;26.62;49.54;101805.50;5055354;28;20495;-67
2022/07/13 06:46:25;;;;;;;7.50;4.38;;;;;;;26.70;48.99;101808.16;5055208;28;20098;-67
2022/07/13 06:48:52;;;;;;;11.68;4.82;;;;;;;26.78;49.10;101810.84;5054903;28;20448;-67
2022/07/13 06:51:19;;;;;;;6.57;4.85;;;;;;;26.87;48.84;101803.31;5054187;28;20128;-67
2022/07/13 06:53:49;;;;;;;11.05;5.60;;;;;;;26.94;48.56;101795.97;5054254;28;20080;-67
2022/07/13 06:56:16;;;;;;;6.10;4.80;;;;;;;27.03;48.49;101792.09;5054334;28;20053;-67
2022/07/13 06:58:43;;;;;;;9.07;5.30;;;;;;;27.13;48.44;101791.78;5054397;28;20487;-65
2022/07/13 07:01:09;;;;;;;6.25;3.75;;;;;;;27.23;48.57;101786.81;5053990;28;20044;-66
2022/07/13 07:03:39;;;;;;;4.68;3.60;;;;;;;27.35;47.79;101790.75;5054214;28;20077;-68
2022/07/13 07:06:06;;;;;;;6.30;4.40;;;;;;;27.47;47.75;101797.44;5054544;28;20033;-68
2022/07/13 07:08:33;;;;;;;8.93;4.18;;;;;;;27.59;47.48;101800.56;5054317;28;20041;-68
2022/07/13 07:11:00;;;;;;;5.25;4.15;;;;;;;27.71;47.38;101809.19;5053770;28;20499;-68
2022/07/13 07:13:52;;;;;;;8.13;4.18;;;;;;;27.80;46.94;101814.38;5053872;28;20040;-68
2022/07/13 07:16:19;;;;;;;5.18;4.20;;;;;;;27.90;46.74;101807.66;5053815;28;20450;-68
2022/07/13 07:18:45;;;;;;;6.55;4.47;;;;;;;27.93;46.44;101810.03;5053663;28;20073;-68
2022/07/13 07:21:32;;;;;;;4.47;4.00;;;;;;;28.03;46.56;101811.38;5053109;28;20099;-68
2022/07/13 07:24:03;;;;;;;5.57;3.80;;;;;;;28.08;46.21;101806.13;5053925;28;20043;-68
2022/07/13 07:26:30;;;;;;;6.00;4.68;;;;;;;28.16;45.89;101816.16;5053997;28;20593;-68
2022/07/13 07:28:57;;;;;;;7.18;4.47;;;;;;;28.20;45.81;101806.41;5054058;28;20076;-67
2022/07/13 07:31:25;;;;;;;5.70;4.57;;;;;;;28.26;45.83;101804.81;5053407;28;20043;-66
2022/07/13 07:33:53;;;;;;;11.98;4.68;;;;;;;28.31;45.58;101803.16;5052119;28;20477;-66
2022/07/13 07:36:19;;;;;;;8.55;4.53;;;;;;;28.33;45.21;101801.03;5036125;28;20073;-66
2022/07/13 07:38:46;;;;;;;6.55;4.63;;;;;;;28.38;45.11;101809.56;5052664;28;20063;-66
2022/07/13 07:41:13;;;;;;;7.15;4.95;;;;;;;28.40;44.90;101806.59;5053073;28;20556;-66
2022/07/13 07:43:39;;;;;;;5.82;4.68;;;;;;;28.44;44.78;101803.22;5052309;28;20045;-66
2022/07/13 07:46:06;;;;;;;9.45;4.07;;;;;;;28.55;45.06;101790.75;5052557;28;20048;-66
2022/07/13 07:48:33;;;;;;;8.68;5.13;;;;;;;28.71;44.91;101792.31;5052481;28;20045;-67
2022/07/13 07:51:00;;;;;;;7.65;4.43;;;;;;;28.85;44.74;101785.81;5052357;28;20045;-66
2022/07/13 07:53:28;;;;;;;11.45;5.30;;;;;;;29.00;44.65;101793.97;5052249;28;20139;-66
2022/07/13 07:55:55;;;;;;;9.77;4.82;;;;;;;29.15;44.53;101796.59;5052297;28;20052;-67
2022/07/13 07:58:21;;;;;;;7.93;5.03;;;;;;;29.26;44.41;101798.75;5052139;28;20057;-66
2022/07/13 08:00:48;;;;;;;6.90;5.03;;;;;;;29.34;44.14;101795.78;5052003;28;20045;-68
2022/07/13 08:03:17;;;;;;;10.43;4.78;;;;;;;29.42;43.99;101795.56;5051770;28;20041;-70
2022/07/13 08:05:48;;;;;;;8.40;4.60;;;;;;;29.52;43.87;101793.28;5052301;28;20526;-69
2022/07/13 08:08:14;;;;;;;7.13;5.10;;;;;;;29.64;43.90;101794.34;5053385;28;20052;-70
2022/07/13 08:10:41;;;;;;;8.90;5.10;;;;;;;29.73;43.60;101798.66;5052389;28;20048;-69
2022/07/13 08:13:09;;;;;;;8.80;5.00;;;;;;;29.80;43.60;101793.13;5052924;28;20048;-69
2022/07/13 08:15:36;;;;;;;7.60;4.97;;;;;;;29.86;43.67;101802.50;5053251;28;20041;-69
2022/07/13 08:18:03;;;;;;;10.20;5.30;;;;;;;29.95;43.58;101799.28;5072660;28;20090;-69
2022/07/13 08:20:30;;;;;;;9.95;5.05;;;;;;;30.05;43.38;101801.66;5073302;28;20048;-69
2022/07/13 08:23:50;;;;;;;5.40;4.30;;;;;;;30.15;43.23;101793.75;5063369;28;20182;-69
2022/07/13 08:25:50;;;;;;;7.25;4.80;;;;;;;30.27;42.87;101794.81;5052887;28;20049;-69
2022/07/13 08:28:16;;;;;;;12.80;4.32;;;;;;;30.34;42.80;101792.03;5052481;28;20045;-69
2022/07/13 08:30:43;;;;;;;9.63;4.80;;;;;;;30.40;42.59;101799.47;5052630;28;20115;-69
2022/07/13 08:38:34;;;;;;;8.45;5.20;;;;;;;30.42;42.36;101799.25;5051708;28;20044;-69
2022/07/13 08:38:52;;;;;;;;;;;;;;;30.44;42.59;101797.13;5032025;28;20047;-69
2022/07/13 08:41:18;;;;;;;8.23;5.50;;;;;;;30.50;42.66;101799.91;5032986;28;20299;-69
2022/07/13 08:47:41;;;;;;;8.95;5.15;;;;;;;30.51;42.39;101798.84;5053146;28;20045;-70
2022/07/13 08:50:09;;;;;;;10.63;5.68;;;;;;;30.51;42.87;101809.06;5052857;28;20056;-70
2022/07/13 08:52:40;;;;;;;8.73;5.32;;;;;;;30.51;42.43;101800.75;5052385;28;20135;-70
2022/07/13 08:55:08;;;;;;;6.93;3.95;;;;;;;30.50;42.50;101797.13;5052112;28;20045;-69
2022/07/13 08:57:39;;;;;;;8.88;4.40;;;;;;;30.50;42.22;101801.81;5051917;28;20049;-69
2022/07/13 09:00:10;;;;;;;9.88;5.18;;;;;;;30.52;42.57;101800.53;5050555;28;20510;-68
2022/07/13 09:02:38;;;;;;;7.88;4.47;;;;;;;30.54;42.53;101808.63;5051113;28;20056;-71
2022/07/13 09:05:07;;;;;;;9.60;5.00;;;;;;;30.54;42.48;101814.19;5050756;28;20068;-72
2022/07/13 09:07:35;;;;;;;10.27;4.10;;;;;;;30.55;42.37;101813.09;5052101;28;20398;-71
2022/07/13 09:10:03;;;;;;;10.30;5.03;;;;;;;30.56;42.75;101818.44;5052555;28;20111;-72
2022/07/13 09:12:35;;;;;;;5.45;3.80;;;;;;;30.58;42.46;101818.22;5051860;28;20033;-69
2022/07/13 09:15:06;;;;;;;6.60;3.22;;;;;;;30.56;42.04;101812.88;5051122;28;20521;-70
2022/07/13 09:17:43;;;;;;;6.43;3.78;;;;;;;30.54;41.63;101817.81;5054986;28;20129;-69
2022/07/13 09:20:09;;;;;;;4.72;3.58;;;;;;;30.54;41.61;101814.19;5055328;28;20044;-69
2022/07/13 09:22:50;;;;;;;4.70;3.75;;;;;;;30.59;41.54;101817.19;5055260;28;20469;-69
2022/07/13 09:25:37;;;;;;;8.50;4.05;;;;;;;30.62;41.40;101825.91;5055102;28;20041;-69
2022/07/13 09:28:05;;;;;;;4.30;3.50;;;;;;;30.67;41.45;101825.25;5055244;28;20147;-70
2022/07/13 09:30:34;;;;;;;7.43;3.63;;;;;;;30.72;41.33;101825.47;5054945;28;20473;-70
2022/07/13 09:33:05;;;;;;;7.65;3.95;;;;;;;30.77;41.29;101824.81;5054820;28;20048;-69
2022/07/13 09:35:49;;;;;;;5.20;3.47;;;;;;;30.81;40.81;101821.38;5054824;28;20051;-69
2022/07/13 09:38:34;;;;;;;4.72;3.70;;;;;;;30.86;40.90;101817.94;5055327;28;20045;-69
2022/07/13 09:41:18;;;;;;;6.27;3.10;;;;;;;30.96;41.01;101818.31;5054603;28;20052;-69
2022/07/13 09:47:04;;;;;;;6.50;3.85;;;;;;;31.12;40.99;101817.81;5034926;28;20049;-68
2022/07/13 09:49:44;;;;;;;5.00;3.45;;;;;;;31.21;40.77;101815.66;5035082;28;20053;-68
2022/07/13 09:52:18;;;;;;;5.20;3.40;;;;;;;31.34;40.87;101823.94;5048200;28;20087;-68
2022/07/13 09:54:51;;;;;;;3.80;3.10;;;;;;;31.41;40.60;101819.19;5053366;28;20084;-68
2022/07/13 09:57:21;;;;;;;5.50;3.10;;;;;;;31.46;40.37;101827.72;5054544;28;20087;-68
2022/07/13 09:59:49;;;;;;;6.75;2.90;;;;;;;31.47;40.15;101832.19;5054784;28;20324;-68
2022/07/13 10:02:16;;;;;;;4.68;3.45;;;;;;;31.49;39.89;101843.06;5053902;28;20045;-68
2022/07/13 10:04:46;;;;;;;5.03;3.08;;;;;;;31.49;39.58;101841.16;5054540;28;20521;-68
2022/07/13 10:07:16;;;;;;;5.20;3.00;;;;;;;31.51;39.75;101838.16;5054605;28;20037;-68
2022/07/13 10:09:43;;;;;;;7.28;2.90;;;;;;;31.52;39.62;101842.63;5054323;28;20517;-68
2022/07/13 10:12:11;;;;;;;4.50;3.20;;;;;;;31.56;39.59;101844.72;5053673;28;20040;-69
2022/07/13 10:14:39;;;;;;;3.72;3.30;;;;;;;31.59;39.80;101843.44;5054344;28;20041;-68
2022/07/13 10:17:11;;;;;;;5.05;3.22;;;;;;;31.59;39.35;101822.06;5054161;28;20037;-69
2022/07/13 10:19:43;;;;;;;5.32;2.70;;;;;;;31.63;39.31;101830.81;5053644;28;20091;-68
2022/07/13 10:22:17;;;;;;;4.20;3.40;;;;;;;31.68;39.28;101835.69;5042984;28;20041;-68
2022/07/13 10:24:55;;;;;;;5.82;3.60;;;;;;;31.75;39.61;101829.03;5053489;28;20474;-68
2022/07/13 10:27:35;;;;;;;4.03;2.90;;;;;;;31.86;39.40;101835.78;5053826;28;20045;-68
2022/07/13 10:30:07;;;;;;;5.65;3.10;;;;;;;31.96;39.40;101826.94;5053801;28;20566;-68
2022/07/13 10:32:38;;;;;;;8.65;3.28;;;;;;;31.99;39.06;101834.84;5053348;28;20144;-69
2022/07/13 10:35:09;;;;;;;5.75;3.33;;;;;;;32.03;38.75;101836.09;5054065;28;20040;-69
2022/07/13 10:38:00;;;;;;;4.47;2.70;;;;;;;32.08;38.62;101845.47;5052624;28;20526;-68
2022/07/13 10:40:30;;;;;;;5.97;2.78;;;;;;;32.15;38.29;101837.06;5053763;28;20366;-68
2022/07/13 10:43:05;;;;;;;4.13;2.60;;;;;;;32.17;38.10;101841.31;5053325;28;20037;-68
2022/07/13 10:45:34;;;;;;;3.67;2.80;;;;;;;32.19;37.84;101838.31;5053870;28;20049;-69
2022/07/13 10:48:04;;;;;;;3.60;2.30;;;;;;;32.16;37.62;101838.75;5052843;28;20052;-68
2022/07/13 10:50:47;;;;;;;4.63;3.00;;;;;;;32.15;37.38;101840.69;5053638;28;20053;-68
2022/07/13 10:53:18;;;;;;;7.28;3.17;;;;;;;32.15;37.10;101843.47;5053309;28;20394;-68
2022/07/13 10:55:47;;;;;;;3.90;2.47;;;;;;;32.15;37.25;101840.69;5053345;28;20491;-68
2022/07/13 10:58:31;;;;;;;5.38;2.70;;;;;;;32.17;37.21;101844.09;5053563;28;20552;-67
2022/07/13 11:00:59;;;;;;;3.47;2.30;;;;;;;32.24;37.20;101844.06;5053461;28;20041;-68
2022/07/13 11:03:47;;;;;;;3.75;2.70;;;;;;;32.29;37.17;101847.00;5053013;28;20115;-67
2022/07/13 11:06:23;;;;;;;4.30;2.30;;;;;;;32.34;36.66;101846.31;5053602;28;20060;-67
2022/07/13 11:09:18;;;;;;;5.07;2.50;;;;;;;32.36;36.81;101841.38;5035657;28;20072;-67
2022/07/13 11:11:48;;;;;;;6.38;2.67;;;;;;;32.41;36.86;101852.66;5051688;28;20201;-67
2022/07/13 11:14:34;;;;;;;3.50;2.42;;;;;;;32.40;36.13;101845.41;5051733;28;20388;-68
2022/07/13 11:17:21;;;;;;;6.25;2.15;;;;;;;32.47;36.05;101843.41;5052171;28;20041;-68
2022/07/13 11:19:58;;;;;;;3.63;2.10;;;;;;;32.58;36.00;101842.66;5053204;28;20039;-68
2022/07/13 11:25:45;;;;;;;5.32;1.77;;;;;;;32.77;35.42;101846.31;5052703;28;20037;-68
2022/07/13 11:28:28;;;;;;;4.25;2.20;;;;;;;32.88;35.17;101842.78;5052693;28;20051;-67
2022/07/13 11:30:55;;;;;;;4.05;2.38;;;;;;;32.95;34.90;101837.97;5053094;28;20041;-68
2022/07/13 11:33:25;;;;;;;2.67;2.05;;;;;;;33.02;34.70;101841.53;5053193;28;20509;-68
2022/07/13 11:35:52;;;;;;;4.35;2.33;;;;;;;33.08;34.43;101845.31;5053333;28;20040;-68
2022/07/13 11:38:20;;;;;;;3.22;2.08;;;;;;;33.11;34.31;101845.69;5052995;28;20051;-68
2022/07/13 11:40:47;;;;;;;4.60;2.38;;;;;;;33.16;34.34;101847.78;5050732;28;20415;-68
2022/07/13 11:43:14;;;;;;;3.83;2.35;;;;;;;33.23;33.96;101842.97;5053265;28;20044;-68